createdAt,value
2019-05-21T00:01:47.218Z,4.85
2019-05-21T00:04:27.881Z,5.65
2019-05-21T00:06:48.281Z,4.60
2019-05-21T00:09:17.949Z,5.67
2019-05-21T00:11:47.761Z,5.78
2019-05-21T00:14:17.459Z,4.85
2019-05-21T00:16:47.162Z,7.12
2019-05-21T00:19:17.837Z,7.08
2019-05-21T00:21:47.573Z,4.65
2019-05-21T00:24:17.360Z,5.28
2019-05-21T00:26:47.067Z,5.35
2019-05-21T00:29:34.479Z,5.20
2019-05-21T00:32:22.152Z,5.20
2019-05-21T00:35:09.452Z,4.33
2019-05-21T00:37:57.209Z,4.30
2019-05-21T00:40:46.006Z,5.65
2019-05-21T00:43:15.849Z,4.35
2019-05-21T00:45:45.525Z,5.95
2019-05-21T00:48:16.303Z,5.53
2019-05-21T00:50:46.034Z,6.53
2019-05-21T00:53:15.692Z,5.65
2019-05-21T00:55:45.352Z,5.45
2019-05-21T00:58:15.189Z,4.33
2019-05-21T01:00:44.886Z,4.75
2019-05-21T01:03:14.556Z,5.90
2019-05-21T01:05:44.306Z,6.03
2019-05-21T01:08:13.966Z,4.72
2019-05-21T01:10:43.647Z,7.08
2019-05-21T01:13:13.314Z,4.80
2019-05-21T01:15:43.010Z,4.75
2019-05-21T01:18:12.742Z,5.83
2019-05-21T01:20:42.435Z,4.58
2019-05-21T01:23:12.102Z,5.60
2019-05-21T01:25:41.778Z,5.62
2019-05-21T01:28:11.484Z,6.53
2019-05-21T01:30:41.143Z,6.20
2019-05-21T01:33:10.801Z,5.28
2019-05-21T01:35:40.513Z,4.62
2019-05-21T01:38:10.265Z,7.28
2019-05-21T01:40:39.972Z,5.87
2019-05-21T01:43:09.713Z,5.05
2019-05-21T01:45:39.428Z,6.72
2019-05-21T01:48:09.080Z,6.85
2019-05-21T01:50:38.766Z,7.20
2019-05-21T01:53:08.461Z,6.95
2019-05-21T01:55:38.154Z,4.55
2019-05-21T01:58:07.808Z,4.90
2019-05-21T02:00:37.559Z,4.40
2019-05-21T02:03:07.199Z,4.55
2019-05-21T02:05:36.871Z,5.55
2019-05-21T02:08:06.571Z,6.05
2019-05-21T02:10:36.279Z,5.03
2019-05-21T02:13:05.962Z,6.33
2019-05-21T02:15:35.634Z,6.58
2019-05-21T02:18:05.303Z,6.00
2019-05-21T02:20:35.030Z,4.92
2019-05-21T02:23:04.722Z,4.87
2019-05-21T02:25:34.363Z,5.37
2019-05-21T02:28:04.043Z,6.05
2019-05-21T02:30:33.746Z,5.47
2019-05-21T02:33:03.412Z,5.58
2019-05-21T02:35:51.074Z,5.35
2019-05-21T02:38:04.566Z,5.90
2019-05-21T02:40:34.317Z,5.33
2019-05-21T02:43:04.017Z,7.45
2019-05-21T02:45:33.709Z,7.40
2019-05-21T02:48:03.406Z,8.45
2019-05-21T02:50:33.083Z,5.62
2019-05-21T02:53:02.774Z,5.50
2019-05-21T02:55:32.463Z,4.90
2019-05-21T02:58:02.136Z,5.45
2019-05-21T03:00:57.513Z,5.37
2019-05-21T03:03:29.529Z,6.15
2019-05-21T03:06:13.018Z,5.10
2019-05-21T03:08:30.514Z,7.53
2019-05-21T03:11:00.276Z,5.67
2019-05-21T03:13:29.954Z,5.33
2019-05-21T03:15:59.644Z,6.83
2019-05-21T03:18:29.304Z,5.50
2019-05-21T03:20:58.997Z,5.70
2019-05-21T03:23:28.674Z,5.42
2019-05-21T03:25:58.397Z,5.15
2019-05-21T03:28:28.067Z,5.05
2019-05-21T03:30:57.798Z,6.37
2019-05-21T03:33:27.559Z,5.45
2019-05-21T03:35:57.255Z,8.48
2019-05-21T03:38:26.964Z,5.35
2019-05-21T03:40:56.692Z,4.62
2019-05-21T03:43:26.382Z,5.22
2019-05-21T03:45:56.082Z,8.80
2019-05-21T03:48:25.798Z,6.80
2019-05-21T03:50:55.516Z,6.45
2019-05-21T03:53:25.223Z,7.53
2019-05-21T03:55:54.941Z,9.10
2019-05-21T03:58:24.627Z,14.80
2019-05-21T04:00:55.320Z,7.55
2019-05-21T04:03:24.985Z,6.10
2019-05-21T04:05:54.660Z,5.60
2019-05-21T04:08:24.337Z,5.58
2019-05-21T04:10:54.075Z,8.20
2019-05-21T04:13:23.770Z,6.97
2019-05-21T04:16:24.565Z,8.73
2019-05-21T04:18:58.291Z,6.92
2019-05-21T04:21:28.014Z,9.93
2019-05-21T04:23:57.736Z,8.75
2019-05-21T04:26:27.546Z,7.78
2019-05-21T04:28:57.227Z,7.83
2019-05-21T04:31:26.886Z,12.20
2019-05-21T04:33:56.592Z,10.10
2019-05-21T04:36:26.371Z,11.20
2019-05-21T04:38:56.051Z,9.83
2019-05-21T04:41:25.858Z,10.53
2019-05-21T04:43:55.728Z,9.68
2019-05-21T04:46:25.712Z,11.22
2019-05-21T04:48:55.666Z,9.45
2019-05-21T04:51:25.380Z,10.23
2019-05-21T04:53:55.113Z,10.32
2019-05-21T04:56:24.854Z,10.72
2019-05-21T04:58:54.639Z,12.75
2019-05-21T05:01:24.393Z,11.00
2019-05-21T05:03:54.117Z,10.72
2019-05-21T05:06:23.822Z,8.33
2019-05-21T05:08:53.570Z,9.28
2019-05-21T05:11:23.408Z,9.70
2019-05-21T05:13:53.120Z,10.65
2019-05-21T05:16:22.803Z,13.53
2019-05-21T05:18:52.562Z,11.68
2019-05-21T05:21:22.274Z,9.15
2019-05-21T05:23:51.985Z,11.08
2019-05-21T05:26:21.706Z,10.28
2019-05-21T05:28:51.464Z,11.10
2019-05-21T05:31:21.281Z,9.03
2019-05-21T05:33:51.169Z,9.83
2019-05-21T05:36:20.891Z,11.08
2019-05-21T05:38:50.657Z,10.80
2019-05-21T05:41:20.515Z,10.70
2019-05-21T05:43:50.248Z,12.30
2019-05-21T05:46:20.094Z,9.00
2019-05-21T05:49:01.669Z,10.40
2019-05-21T05:51:30.072Z,9.90
2019-05-21T05:53:59.869Z,12.00
2019-05-21T05:56:29.750Z,13.05
2019-05-21T05:58:59.543Z,10.93
2019-05-21T06:01:30.831Z,9.83
2019-05-21T06:04:00.553Z,11.03
2019-05-21T06:06:30.285Z,11.18
2019-05-21T06:08:59.988Z,11.35
2019-05-21T06:11:29.665Z,9.50
2019-05-21T06:13:59.369Z,8.88
2019-05-21T06:16:29.168Z,10.10
2019-05-21T06:18:58.877Z,9.53
2019-05-21T06:21:28.605Z,10.55
2019-05-21T06:23:58.376Z,8.48
2019-05-21T06:26:28.105Z,8.88
2019-05-21T06:28:57.803Z,8.35
2019-05-21T06:31:27.476Z,8.08
2019-05-21T06:33:57.168Z,8.38
2019-05-21T06:36:26.902Z,6.90
2019-05-21T06:38:56.556Z,7.05
2019-05-21T06:41:26.267Z,5.87
2019-05-21T06:43:56.028Z,8.38
2019-05-21T06:46:25.831Z,7.03
2019-05-21T06:48:55.647Z,6.72
2019-05-21T06:51:25.336Z,7.15
2019-05-21T06:53:55.098Z,6.28
2019-05-21T06:56:24.834Z,5.67
2019-05-21T06:58:54.621Z,5.15
2019-05-21T07:01:28.669Z,9.00
2019-05-21T07:03:55.694Z,4.53
2019-05-21T07:06:25.370Z,5.42
2019-05-21T07:08:55.067Z,5.50
2019-05-21T07:11:24.836Z,4.50
2019-05-21T07:13:54.598Z,6.00
2019-05-21T07:16:24.380Z,5.30
2019-05-21T07:18:54.121Z,5.53
2019-05-21T07:21:23.829Z,5.20
2019-05-21T07:23:53.556Z,4.78
2019-05-21T07:26:23.237Z,4.40
2019-05-21T07:28:54.321Z,5.25
2019-05-21T07:31:25.016Z,6.85
2019-05-21T07:33:54.688Z,3.98
2019-05-21T07:36:24.404Z,5.65
2019-05-21T07:38:54.394Z,5.87
2019-05-21T07:41:24.234Z,4.78
2019-05-21T07:43:53.922Z,4.35
2019-05-21T07:46:23.603Z,4.25
2019-05-21T07:48:53.305Z,4.70
2019-05-21T07:51:22.985Z,4.08
2019-05-21T07:53:52.742Z,5.15
2019-05-21T07:56:22.455Z,4.67
2019-05-21T07:58:52.192Z,7.53
2019-05-21T08:01:21.927Z,5.33
2019-05-21T08:03:51.618Z,4.45
2019-05-21T08:06:22.413Z,4.17
2019-05-21T08:09:10.881Z,4.67
2019-05-21T08:11:23.491Z,4.47
2019-05-21T08:13:53.185Z,4.67
2019-05-21T08:16:22.863Z,3.77
2019-05-21T08:18:52.618Z,3.58
2019-05-21T08:21:22.316Z,4.25
2019-05-21T08:23:52.026Z,4.47
2019-05-21T08:26:21.720Z,3.12
2019-05-21T08:28:51.427Z,3.25
2019-05-21T08:31:21.108Z,3.65
2019-05-21T08:33:50.801Z,3.37
2019-05-21T08:36:20.539Z,3.22
2019-05-21T08:38:50.315Z,4.60
2019-05-21T08:41:20.073Z,4.87
2019-05-21T08:43:49.783Z,3.40
2019-05-21T08:46:19.480Z,3.15
2019-05-21T08:48:50.252Z,3.92
2019-05-21T08:51:20.063Z,3.40
2019-05-21T08:53:49.740Z,3.65
2019-05-21T08:56:19.456Z,2.70
2019-05-21T08:58:49.156Z,3.60
2019-05-21T09:01:18.869Z,3.00
2019-05-21T09:03:48.597Z,4.60
2019-05-21T09:06:18.331Z,4.42
2019-05-21T09:08:48.044Z,3.25
2019-05-21T09:11:18.685Z,2.62
2019-05-21T09:13:48.418Z,2.60
2019-05-21T09:16:18.112Z,2.62
2019-05-21T09:18:47.804Z,2.17
2019-05-21T09:21:17.469Z,2.58
2019-05-21T09:23:47.206Z,2.90
2019-05-21T09:26:16.978Z,3.05
2019-05-21T09:28:46.689Z,2.50
2019-05-21T09:31:16.589Z,2.70
2019-05-21T09:33:46.226Z,2.62
2019-05-21T09:36:17.037Z,3.25
2019-05-21T09:38:46.725Z,2.00
2019-05-21T09:41:16.414Z,2.67
2019-05-21T09:43:46.079Z,2.60
2019-05-21T09:46:17.405Z,2.33
2019-05-21T09:48:47.082Z,2.52
2019-05-21T09:51:20.069Z,2.27
2019-05-21T09:53:48.096Z,1.98
2019-05-21T09:56:33.155Z,2.22
2019-05-21T09:59:11.343Z,1.87
2019-05-21T10:01:47.668Z,3.83
2019-05-21T10:04:15.335Z,1.80
2019-05-21T10:06:45.030Z,3.80
2019-05-21T10:09:17.000Z,2.67
2019-05-21T10:11:46.671Z,2.30
2019-05-21T10:14:16.426Z,2.80
2019-05-21T10:16:46.118Z,2.42
2019-05-21T10:19:15.827Z,2.55
2019-05-21T10:21:45.581Z,7.72
2019-05-21T10:24:15.255Z,3.20
2019-05-21T10:26:44.958Z,3.85
2019-05-21T10:29:14.642Z,2.95
2019-05-21T10:31:44.316Z,3.10
2019-05-21T10:34:13.986Z,2.65
2019-05-21T10:36:43.700Z,2.80
2019-05-21T10:39:13.759Z,2.55
2019-05-21T10:41:46.026Z,3.42
2019-05-21T10:44:14.772Z,2.40
2019-05-21T10:46:44.583Z,2.67
2019-05-21T10:49:14.264Z,3.15
2019-05-21T10:51:43.993Z,2.40
2019-05-21T10:54:13.780Z,2.60
2019-05-21T10:56:47.877Z,2.65
2019-05-21T10:59:14.926Z,2.87
2019-05-21T11:02:23.538Z,2.90
2019-05-21T11:04:59.995Z,2.77
2019-05-21T11:07:29.696Z,2.67
2019-05-21T11:09:59.371Z,2.42
2019-05-21T11:12:29.066Z,2.42
2019-05-21T11:14:58.842Z,3.17
2019-05-21T11:17:28.576Z,4.15
2019-05-21T11:19:58.226Z,2.50
2019-05-21T11:22:28.003Z,3.58
2019-05-21T11:24:57.685Z,2.92
2019-05-21T11:27:27.524Z,2.40
2019-05-21T11:29:57.317Z,2.72
2019-05-21T11:32:27.372Z,2.80
2019-05-21T11:34:57.037Z,2.30
2019-05-21T11:37:26.755Z,2.47
2019-05-21T11:39:56.453Z,2.65
2019-05-21T11:42:26.137Z,2.50
2019-05-21T11:44:55.849Z,3.00
2019-05-21T11:47:25.554Z,3.67
2019-05-21T11:49:55.423Z,2.70
2019-05-21T11:52:26.189Z,2.50
2019-05-21T11:54:56.107Z,2.22
2019-05-21T11:57:25.802Z,2.65
2019-05-21T11:59:55.513Z,2.22
2019-05-21T12:02:25.232Z,2.70
2019-05-21T12:04:55.292Z,2.77
2019-05-21T12:07:24.997Z,2.27
2019-05-21T12:09:54.770Z,2.65
2019-05-21T12:12:24.537Z,3.25
2019-05-21T12:14:54.196Z,3.83
2019-05-21T12:17:23.890Z,2.60
2019-05-21T12:19:53.698Z,2.90
2019-05-21T12:22:23.522Z,3.92
2019-05-21T12:24:53.283Z,2.77
2019-05-21T12:27:23.108Z,2.80
2019-05-21T12:29:52.888Z,3.00
2019-05-21T12:32:22.691Z,3.27
2019-05-21T12:34:52.382Z,2.80
2019-05-21T12:37:23.159Z,3.10
2019-05-21T12:39:53.974Z,2.80
2019-05-21T12:42:25.673Z,2.77
2019-05-21T12:44:55.394Z,2.72
2019-05-21T12:47:25.081Z,2.70
2019-05-21T12:49:54.814Z,2.70
2019-05-21T12:52:24.592Z,2.77
2019-05-21T12:54:54.286Z,3.42
2019-05-21T12:57:24.113Z,2.45
2019-05-21T12:59:53.780Z,2.37
2019-05-21T13:02:23.507Z,3.08
2019-05-21T13:04:53.249Z,2.52
2019-05-21T13:07:23.101Z,2.58
2019-05-21T13:09:52.840Z,2.17
2019-05-21T13:12:22.602Z,2.40
2019-05-21T13:14:52.506Z,3.22
2019-05-21T13:17:22.270Z,2.50
2019-05-21T13:19:52.138Z,2.00
2019-05-21T13:22:21.962Z,3.37
2019-05-21T13:24:52.031Z,4.28
2019-05-21T13:27:21.997Z,3.53
2019-05-21T13:29:53.025Z,2.35
2019-05-21T13:32:22.937Z,3.77
2019-05-21T13:34:52.791Z,2.15
2019-05-21T13:37:22.524Z,3.47
2019-05-21T13:39:54.352Z,3.60
2019-05-21T13:42:24.028Z,2.10
2019-05-21T13:44:53.884Z,2.30
2019-05-21T13:47:23.667Z,2.00
2019-05-21T13:49:53.440Z,2.15
2019-05-21T13:52:23.169Z,3.98
2019-05-21T13:54:52.917Z,3.87
2019-05-21T13:57:24.299Z,1.87
2019-05-21T13:59:54.043Z,1.95
2019-05-21T14:02:23.860Z,2.20
2019-05-21T14:04:53.683Z,1.95
2019-05-21T14:07:23.446Z,1.67
2019-05-21T14:10:13.286Z,3.62
2019-05-21T14:12:25.511Z,2.05
2019-05-21T14:14:55.255Z,1.70
2019-05-21T14:17:25.001Z,3.02
2019-05-21T14:19:54.776Z,1.92
2019-05-21T14:22:24.582Z,2.45
2019-05-21T14:24:54.337Z,4.45
2019-05-21T14:27:24.095Z,1.95
2019-05-21T14:29:53.865Z,2.30
2019-05-21T14:32:23.600Z,1.80
2019-05-21T14:35:01.168Z,3.15
2019-05-21T14:37:24.584Z,3.02
2019-05-21T14:39:54.384Z,1.70
2019-05-21T14:42:24.196Z,2.00
2019-05-21T14:44:53.965Z,2.15
2019-05-21T14:47:23.793Z,1.95
2019-05-21T14:49:53.545Z,2.15
2019-05-21T14:52:23.307Z,2.00
2019-05-21T14:54:53.047Z,2.80
2019-05-21T14:57:22.930Z,2.30
2019-05-21T14:59:52.869Z,2.50
2019-05-21T15:02:22.633Z,2.27
2019-05-21T15:04:52.464Z,2.20
2019-05-21T15:07:22.499Z,3.12
2019-05-21T15:09:53.624Z,2.45
2019-05-21T15:12:23.484Z,3.58
2019-05-21T15:14:53.189Z,2.33
2019-05-21T15:17:23.042Z,2.70
2019-05-21T15:19:55.249Z,4.08
2019-05-21T15:22:25.013Z,5.60
2019-05-21T15:24:54.765Z,4.72
2019-05-21T15:27:24.484Z,4.75
2019-05-21T15:29:57.187Z,4.12
2019-05-21T15:32:26.721Z,4.33
2019-05-21T15:34:57.246Z,3.72
2019-05-21T15:37:30.189Z,4.70
2019-05-21T15:40:03.126Z,5.15
2019-05-21T15:42:33.355Z,3.87
2019-05-21T15:45:04.242Z,3.42
2019-05-21T15:47:34.010Z,3.12
2019-05-21T15:50:06.829Z,9.15
2019-05-21T15:52:36.560Z,38.58
2019-05-21T15:55:07.409Z,13.88
2019-05-21T15:57:37.453Z,4.62
2019-05-21T16:00:07.326Z,2.75
2019-05-21T16:02:37.068Z,2.10
2019-05-21T16:05:06.954Z,2.90
2019-05-21T16:07:37.730Z,5.05
2019-05-21T16:10:07.662Z,2.17
2019-05-21T16:12:37.378Z,3.12
2019-05-21T16:15:07.347Z,3.62
2019-05-21T16:17:37.095Z,1.50
2019-05-21T16:20:06.953Z,2.92
2019-05-21T16:22:36.745Z,2.15
2019-05-21T16:25:07.209Z,3.12
2019-05-21T16:27:36.873Z,3.08
2019-05-21T16:30:06.708Z,16.00
2019-05-21T16:32:36.561Z,2.85
2019-05-21T16:35:06.422Z,2.50
2019-05-21T16:37:36.245Z,2.12
2019-05-21T16:40:05.995Z,2.77
2019-05-21T16:42:36.560Z,2.25
2019-05-21T16:45:06.365Z,3.27
2019-05-21T16:47:45.944Z,2.85
2019-05-21T16:50:07.776Z,4.28
2019-05-21T16:52:38.208Z,2.70
2019-05-21T16:55:08.052Z,3.27
2019-05-21T16:57:37.861Z,2.55
2019-05-21T17:00:08.373Z,3.27
2019-05-21T17:02:38.398Z,2.35
2019-05-21T17:05:08.944Z,2.25
2019-05-21T17:07:38.744Z,2.83
2019-05-21T17:10:08.485Z,2.15
2019-05-21T17:12:38.279Z,2.52
2019-05-21T17:15:08.011Z,2.10
2019-05-21T17:17:38.817Z,3.27
2019-05-21T17:20:08.593Z,2.40
2019-05-21T17:22:39.092Z,2.52
2019-05-21T17:25:08.991Z,2.20
2019-05-21T17:27:38.781Z,2.30
2019-05-21T17:30:09.730Z,2.33
2019-05-21T17:32:39.483Z,2.25
2019-05-21T17:35:09.453Z,2.30
2019-05-21T17:37:39.236Z,2.30
2019-05-21T17:40:09.274Z,2.75
2019-05-21T17:42:39.150Z,2.02
2019-05-21T17:45:10.167Z,2.67
2019-05-21T17:47:40.024Z,2.37
2019-05-21T17:50:10.193Z,2.20
2019-05-21T17:52:40.033Z,2.10
2019-05-21T17:55:09.971Z,2.15
2019-05-21T17:57:40.293Z,2.27
2019-05-21T18:00:10.715Z,2.17
2019-05-21T18:02:41.154Z,2.42
2019-05-21T18:05:12.460Z,2.40
2019-05-21T18:07:42.698Z,2.40
2019-05-21T18:10:13.012Z,2.30
2019-05-21T18:12:42.890Z,2.20
2019-05-21T18:15:13.328Z,2.05
2019-05-21T18:17:44.100Z,3.60
2019-05-21T18:20:15.864Z,2.20
2019-05-21T18:22:47.835Z,3.00
2019-05-21T18:25:17.768Z,2.20
2019-05-21T18:27:48.080Z,2.42
2019-05-21T18:30:19.935Z,2.27
2019-05-21T18:32:50.981Z,2.55
2019-05-21T18:35:20.844Z,2.67
2019-05-21T18:37:50.863Z,2.27
2019-05-21T18:40:21.131Z,2.47
2019-05-21T18:42:50.978Z,3.92
2019-05-21T18:45:21.143Z,2.50
2019-05-21T18:47:51.191Z,3.67
2019-05-21T18:50:34.968Z,3.60
2019-05-21T18:52:53.041Z,6.20
2019-05-21T18:55:22.878Z,9.65
2019-05-21T18:57:52.771Z,3.62
2019-05-21T19:00:22.728Z,3.70
2019-05-21T19:02:52.684Z,2.95
2019-05-21T19:05:24.100Z,2.87
2019-05-21T19:07:53.942Z,2.72
2019-05-21T19:10:23.807Z,2.65
2019-05-21T19:12:53.670Z,2.55
2019-05-21T19:15:23.604Z,2.70
2019-05-21T19:17:53.383Z,4.15
2019-05-21T19:20:23.239Z,2.72
2019-05-21T19:22:54.274Z,3.50
2019-05-21T19:25:24.035Z,3.58
2019-05-21T19:27:53.876Z,2.95
2019-05-21T19:30:23.852Z,3.98
2019-05-21T19:32:53.960Z,5.08
2019-05-21T19:35:23.912Z,4.25
2019-05-21T19:37:54.239Z,3.83
2019-05-21T19:40:24.082Z,3.98
2019-05-21T19:42:55.566Z,4.45
2019-05-21T19:45:25.529Z,4.78
2019-05-21T19:47:55.267Z,11.53
2019-05-21T19:50:25.033Z,4.78
2019-05-21T19:52:54.831Z,5.47
2019-05-21T19:55:24.544Z,5.03
2019-05-21T19:57:54.477Z,4.53
2019-05-21T20:00:26.307Z,6.53
2019-05-21T20:02:58.327Z,4.50
2019-05-21T20:05:28.781Z,6.35
2019-05-21T20:07:58.843Z,8.83
2019-05-21T20:10:28.946Z,8.90
2019-05-21T20:12:58.625Z,10.58
2019-05-21T20:15:28.658Z,12.93
2019-05-21T20:18:06.920Z,13.05
2019-05-21T20:20:30.434Z,12.80
2019-05-21T20:23:00.236Z,13.72
2019-05-21T20:25:33.448Z,15.05
2019-05-21T20:28:05.208Z,13.50
2019-05-21T20:30:34.946Z,11.75
2019-05-21T20:33:05.492Z,13.10
2019-05-21T20:35:36.846Z,16.17
2019-05-21T20:38:07.657Z,13.98
2019-05-21T20:40:37.726Z,13.72
2019-05-21T20:43:09.000Z,12.82
2019-05-21T20:45:41.374Z,10.90
2019-05-21T20:48:12.777Z,17.67
2019-05-21T20:50:42.666Z,11.80
2019-05-21T20:53:12.750Z,12.20
2019-05-21T20:55:42.395Z,11.80
2019-05-21T20:58:13.307Z,10.63
2019-05-21T21:00:48.597Z,12.80
2019-05-21T21:03:18.373Z,12.70
2019-05-21T21:05:48.344Z,12.18
2019-05-21T21:08:20.676Z,10.95
2019-05-21T21:10:50.325Z,14.30
2019-05-21T21:13:20.043Z,13.80
2019-05-21T21:15:49.729Z,13.72
2019-05-21T21:18:19.809Z,14.70
2019-05-21T21:20:49.656Z,15.40
2019-05-21T21:23:21.218Z,12.95
2019-05-21T21:25:50.977Z,14.18
2019-05-21T21:28:20.824Z,19.77
2019-05-21T21:30:50.736Z,19.30
2019-05-21T21:33:20.591Z,20.70
2019-05-21T21:35:50.318Z,39.15
2019-05-21T21:38:23.734Z,17.50
2019-05-21T21:40:53.412Z,17.35
2019-05-21T21:43:23.133Z,19.57
2019-05-21T21:45:52.882Z,16.12
2019-05-21T21:48:22.577Z,16.15
2019-05-21T21:50:52.463Z,21.87
2019-05-21T21:53:22.182Z,19.32
2019-05-21T21:55:51.897Z,19.75
2019-05-21T21:58:21.647Z,16.35
2019-05-21T22:01:28.866Z,17.30
2019-05-21T22:04:00.895Z,16.17
2019-05-21T22:06:33.046Z,17.73
2019-05-21T22:09:04.605Z,18.37
2019-05-21T22:11:34.741Z,23.02
2019-05-21T22:14:04.987Z,19.57
2019-05-21T22:16:34.802Z,18.67
2019-05-21T22:19:06.231Z,18.42
2019-05-21T22:21:37.087Z,16.95
2019-05-21T22:24:07.448Z,18.65
2019-05-21T22:26:37.155Z,18.60
2019-05-21T22:29:06.999Z,18.65
2019-05-21T22:31:37.056Z,17.23
2019-05-21T22:34:06.819Z,19.98
2019-05-21T22:36:36.505Z,19.17
2019-05-21T22:39:08.904Z,22.80
2019-05-21T22:41:38.640Z,21.77
2019-05-21T22:44:08.581Z,22.45
2019-05-21T22:46:38.386Z,19.65
2019-05-21T22:49:08.122Z,20.20
2019-05-21T22:51:37.747Z,19.57
2019-05-21T22:54:07.431Z,21.97
2019-05-21T22:56:37.140Z,20.60
2019-05-21T22:59:06.887Z,25.05
2019-05-21T23:01:36.699Z,20.00
2019-05-21T23:04:06.429Z,21.60
2019-05-21T23:06:36.189Z,20.75
2019-05-21T23:09:06.859Z,23.90
2019-05-21T23:11:36.555Z,21.12
2019-05-21T23:14:06.598Z,21.23
2019-05-21T23:16:37.957Z,19.15
2019-05-21T23:19:17.153Z,23.27
2019-05-21T23:21:51.245Z,22.22
2019-05-21T23:24:23.457Z,20.77
2019-05-21T23:26:56.119Z,31.02
2019-05-21T23:29:27.694Z,24.00
2019-05-21T23:31:57.417Z,29.32
2019-05-21T23:34:27.703Z,24.05
2019-05-21T23:36:58.297Z,23.02
2019-05-21T23:39:30.290Z,24.35
2019-05-21T23:42:00.638Z,22.10
2019-05-21T23:44:30.341Z,26.12
2019-05-21T23:47:05.681Z,28.70
2019-05-21T23:49:35.315Z,26.50
2019-05-21T23:52:05.107Z,28.02
2019-05-21T23:54:34.787Z,27.40
2019-05-21T23:57:05.387Z,27.10
2019-05-21T23:59:35.183Z,26.00
